createdAt,value
2022-08-31T00:01:34.615Z,99.90
2022-08-31T00:04:03.624Z,99.90
2022-08-31T00:06:33.024Z,99.90
2022-08-31T00:09:00.581Z,99.90
2022-08-31T00:11:31.352Z,99.90
2022-08-31T00:14:04.793Z,99.90
2022-08-31T00:16:35.205Z,99.90
2022-08-31T00:19:02.488Z,99.90
2022-08-31T00:21:29.406Z,99.90
2022-08-31T00:23:56.697Z,99.90
2022-08-31T00:26:23.649Z,99.90
2022-08-31T00:28:51.590Z,99.90
2022-08-31T00:31:19.595Z,99.90
2022-08-31T00:33:52.247Z,99.90
2022-08-31T00:36:23.182Z,99.90
2022-08-31T00:38:50.795Z,99.90
2022-08-31T00:41:20.879Z,99.90
2022-08-31T00:43:52.639Z,99.90
2022-08-31T00:46:23.221Z,99.90
2022-08-31T00:49:04.433Z,99.90
2022-08-31T00:51:35.009Z,99.90
2022-08-31T00:54:02.992Z,99.90
2022-08-31T00:59:00.193Z,99.90
2022-08-31T01:01:28.019Z,99.90
2022-08-31T01:03:55.301Z,99.90
2022-08-31T01:06:23.156Z,99.90
2022-08-31T01:08:51.127Z,99.90
2022-08-31T01:11:19.660Z,99.90
2022-08-31T01:13:47.090Z,99.90
2022-08-31T01:16:19.826Z,99.90
2022-08-31T01:18:47.957Z,99.90
2022-08-31T01:21:17.555Z,99.90
2022-08-31T01:23:45.931Z,99.90
2022-08-31T01:26:26.490Z,99.90
2022-08-31T01:28:57.462Z,99.90
2022-08-31T01:31:28.649Z,99.90
2022-08-31T01:33:56.003Z,99.90
2022-08-31T01:36:25.640Z,99.90
2022-08-31T01:38:53.165Z,99.90
2022-08-31T01:41:21.963Z,99.90
2022-08-31T01:43:49.076Z,99.90
2022-08-31T01:46:16.355Z,99.90
2022-08-31T01:48:44.865Z,99.90
2022-08-31T01:51:13.779Z,99.90
2022-08-31T01:53:42.629Z,99.90
2022-08-31T01:56:20.067Z,99.90
2022-08-31T01:58:46.940Z,99.90
2022-08-31T02:01:26.291Z,99.90
2022-08-31T02:04:03.143Z,99.90
2022-08-31T02:06:31.266Z,99.90
2022-08-31T02:11:25.508Z,99.90
2022-08-31T02:13:52.373Z,99.90
2022-08-31T02:16:19.476Z,99.90
2022-08-31T02:18:46.454Z,99.90
2022-08-31T02:23:41.585Z,99.90
2022-08-31T02:26:09.361Z,99.90
2022-08-31T02:28:36.765Z,99.90
2022-08-31T02:31:04.365Z,99.90
2022-08-31T02:33:31.503Z,99.90
2022-08-31T02:35:58.521Z,99.90
2022-08-31T02:38:25.622Z,99.90
2022-08-31T02:43:24.720Z,99.90
2022-08-31T02:45:53.561Z,99.90
2022-08-31T02:48:21.821Z,99.90
2022-08-31T02:50:51.099Z,99.90
2022-08-31T02:53:20.622Z,99.90
2022-08-31T02:55:47.910Z,99.90
2022-08-31T02:58:18.576Z,99.90
2022-08-31T03:00:48.462Z,99.90
2022-08-31T03:03:16.089Z,99.90
2022-08-31T03:05:42.982Z,99.90
2022-08-31T03:08:10.027Z,99.90
2022-08-31T03:10:38.466Z,99.90
2022-08-31T03:13:05.483Z,99.90
2022-08-31T03:15:32.539Z,99.90
2022-08-31T03:17:59.448Z,99.90
2022-08-31T03:20:28.370Z,99.90
2022-08-31T03:22:55.761Z,99.90
2022-08-31T03:30:22.303Z,99.90
2022-08-31T03:32:51.141Z,99.90
2022-08-31T03:35:19.821Z,99.90
2022-08-31T03:37:46.829Z,99.90
2022-08-31T03:42:42.218Z,99.90
2022-08-31T03:45:09.951Z,99.90
2022-08-31T03:47:44.517Z,99.90
2022-08-31T03:52:39.688Z,99.90
2022-08-31T03:55:08.488Z,99.90
2022-08-31T03:57:35.761Z,99.90
2022-08-31T04:00:05.337Z,99.90
2022-08-31T04:02:37.358Z,99.90
2022-08-31T04:07:34.276Z,99.90
2022-08-31T04:10:14.511Z,99.90
2022-08-31T04:12:41.922Z,99.90
2022-08-31T04:15:09.959Z,99.90
2022-08-31T04:17:37.207Z,99.90
2022-08-31T04:20:05.714Z,99.90
2022-08-31T04:22:32.848Z,99.90
2022-08-31T04:27:27.139Z,99.90
2022-08-31T04:29:54.079Z,99.90
2022-08-31T04:32:21.151Z,99.90
2022-08-31T04:34:48.061Z,99.90
2022-08-31T04:39:50.664Z,99.90
2022-08-31T04:44:46.401Z,99.90
2022-08-31T04:52:08.418Z,99.90
2022-08-31T04:54:35.352Z,99.90
2022-08-31T04:57:02.221Z,99.90
2022-08-31T04:59:29.452Z,99.90
2022-08-31T05:04:26.041Z,99.90
2022-08-31T05:06:53.025Z,99.90
2022-08-31T05:09:23.112Z,99.90
2022-08-31T05:11:52.318Z,99.90
2022-08-31T05:14:22.045Z,99.90
2022-08-31T05:16:49.961Z,99.90
2022-08-31T05:19:17.708Z,99.90
2022-08-31T05:21:45.268Z,99.90
2022-08-31T05:24:19.364Z,99.90
2022-08-31T05:26:50.330Z,99.90
2022-08-31T05:29:20.115Z,99.90
2022-08-31T05:31:51.638Z,99.90
2022-08-31T05:34:19.736Z,99.90
2022-08-31T05:36:51.761Z,99.90
2022-08-31T05:41:47.338Z,99.90
2022-08-31T05:44:15.357Z,99.90
2022-08-31T05:46:42.662Z,99.90
2022-08-31T05:49:11.021Z,99.90
2022-08-31T05:51:39.776Z,99.90
2022-08-31T05:54:07.860Z,99.90
2022-08-31T05:59:03.287Z,99.90
2022-08-31T06:01:34.146Z,99.90
2022-08-31T06:04:02.310Z,99.90
2022-08-31T06:06:29.727Z,99.90
2022-08-31T06:08:57.829Z,99.90
2022-08-31T06:11:30.180Z,99.90
2022-08-31T06:14:00.980Z,99.90
2022-08-31T06:16:29.746Z,99.90
2022-08-31T06:21:29.097Z,99.90
2022-08-31T06:26:28.719Z,99.90
2022-08-31T06:29:01.150Z,99.90
2022-08-31T06:31:32.551Z,99.90
2022-08-31T06:34:00.062Z,99.90
2022-08-31T06:36:30.981Z,99.90
2022-08-31T06:39:00.590Z,99.90
2022-08-31T06:41:37.040Z,99.90
2022-08-31T06:44:09.748Z,99.90
2022-08-31T06:46:38.864Z,99.90
2022-08-31T06:49:08.523Z,99.90
2022-08-31T06:51:38.071Z,99.90
2022-08-31T06:54:28.418Z,99.90
2022-08-31T06:56:58.561Z,99.90
2022-08-31T07:01:57.347Z,99.90
2022-08-31T07:04:24.452Z,99.20
2022-08-31T07:06:51.757Z,98.20
2022-08-31T07:09:19.066Z,98.80
2022-08-31T07:11:47.267Z,97.10
2022-08-31T07:14:17.783Z,96.40
2022-08-31T07:16:46.074Z,96.10
2022-08-31T07:19:14.146Z,95.40
2022-08-31T07:21:43.946Z,94.20
2022-08-31T07:24:13.351Z,94.20
2022-08-31T07:26:48.825Z,94.40
2022-08-31T07:29:18.694Z,94.00
2022-08-31T07:31:48.927Z,93.60
2022-08-31T07:34:19.418Z,93.80
2022-08-31T07:37:05.824Z,94.30
2022-08-31T07:39:52.473Z,93.50
2022-08-31T07:42:28.882Z,92.80
2022-08-31T07:44:59.118Z,93.30
2022-08-31T07:47:29.629Z,92.60
2022-08-31T07:49:58.606Z,93.70
2022-08-31T07:52:31.723Z,92.70
2022-08-31T07:55:09.491Z,91.30
2022-08-31T07:57:44.737Z,91.40
2022-08-31T08:00:21.102Z,90.50
2022-08-31T08:02:53.351Z,92.80
2022-08-31T08:05:28.661Z,90.70
2022-08-31T08:08:07.508Z,91.20
2022-08-31T08:10:52.340Z,91.20
2022-08-31T08:13:20.633Z,92.00
2022-08-31T08:15:50.849Z,92.80
2022-08-31T08:18:19.582Z,91.80
2022-08-31T08:20:46.825Z,91.00
2022-08-31T08:23:18.435Z,90.70
2022-08-31T08:25:54.193Z,88.50
2022-08-31T08:31:14.066Z,86.30
2022-08-31T08:33:41.349Z,83.30
2022-08-31T08:36:09.122Z,85.50
2022-08-31T08:38:39.623Z,87.00
2022-08-31T08:41:12.939Z,87.10
2022-08-31T08:43:43.775Z,85.70
2022-08-31T08:46:33.954Z,86.90
2022-08-31T08:49:19.938Z,83.50
2022-08-31T08:51:51.691Z,82.60
2022-08-31T08:54:29.902Z,79.70
2022-08-31T08:56:58.065Z,76.40
2022-08-31T08:59:26.027Z,76.90
2022-08-31T09:01:56.380Z,76.40
2022-08-31T09:04:49.045Z,75.60
2022-08-31T09:08:05.259Z,77.40
2022-08-31T09:10:41.973Z,78.60
2022-08-31T09:13:50.393Z,76.80
2022-08-31T09:16:40.968Z,74.80
2022-08-31T09:19:12.904Z,75.30
2022-08-31T09:21:53.351Z,73.90
2022-08-31T09:24:27.227Z,74.90
2022-08-31T09:27:18.059Z,74.10
2022-08-31T09:30:00.731Z,73.20
2022-08-31T09:32:34.911Z,74.00
2022-08-31T09:35:23.975Z,71.00
2022-08-31T09:38:03.736Z,70.50
2022-08-31T09:40:39.420Z,69.20
2022-08-31T09:43:10.037Z,70.50
2022-08-31T09:45:42.574Z,69.00
2022-08-31T09:48:10.001Z,67.40
2022-08-31T09:53:25.575Z,66.00
2022-08-31T09:56:16.806Z,64.80
2022-08-31T09:58:46.828Z,61.40
2022-08-31T10:01:39.820Z,62.20
2022-08-31T10:04:18.835Z,64.30
2022-08-31T10:07:11.360Z,62.00
2022-08-31T10:09:47.211Z,64.50
2022-08-31T10:12:22.684Z,61.80
2022-08-31T10:14:55.764Z,61.30
2022-08-31T10:17:35.069Z,61.10
2022-08-31T10:20:18.654Z,61.50
2022-08-31T10:22:57.798Z,59.80
2022-08-31T10:25:35.770Z,60.30
2022-08-31T10:28:28.646Z,57.60
2022-08-31T10:31:07.634Z,56.20
2022-08-31T10:34:02.332Z,55.70
2022-08-31T10:36:36.419Z,52.40
2022-08-31T10:39:11.306Z,51.70
2022-08-31T10:41:45.198Z,52.50
2022-08-31T10:44:28.652Z,52.10
2022-08-31T10:47:05.748Z,52.50
2022-08-31T10:49:39.237Z,53.00
2022-08-31T10:52:17.319Z,54.20
2022-08-31T10:54:54.613Z,53.40
2022-08-31T10:57:32.118Z,52.90
2022-08-31T11:00:58.002Z,55.80
2022-08-31T11:03:32.507Z,56.50
2022-08-31T11:06:03.099Z,54.90
2022-08-31T11:08:35.258Z,54.20
2022-08-31T11:11:06.683Z,52.90
2022-08-31T11:13:49.327Z,51.10
2022-08-31T11:16:43.004Z,52.20
2022-08-31T11:19:32.365Z,51.10
2022-08-31T11:22:29.652Z,52.50
2022-08-31T11:25:18.309Z,56.10
2022-08-31T11:27:55.111Z,56.20
2022-08-31T11:30:29.191Z,58.40
2022-08-31T11:33:00.245Z,58.40
2022-08-31T11:35:49.431Z,58.70
2022-08-31T11:38:50.054Z,59.80
2022-08-31T11:41:36.319Z,56.40
2022-08-31T11:44:04.840Z,52.60
2022-08-31T11:46:40.258Z,51.50
2022-08-31T11:49:10.911Z,51.40
2022-08-31T11:51:48.159Z,50.40
2022-08-31T11:54:45.357Z,50.40
2022-08-31T11:57:17.605Z,50.30
2022-08-31T11:59:49.107Z,52.60
2022-08-31T12:02:25.522Z,53.20
2022-08-31T12:05:02.980Z,55.90
2022-08-31T12:07:36.649Z,55.40
2022-08-31T12:10:18.390Z,56.10
2022-08-31T12:13:09.512Z,56.20
2022-08-31T12:15:42.358Z,55.90
2022-08-31T12:18:49.036Z,52.20
2022-08-31T12:22:02.840Z,52.90
2022-08-31T12:25:03.012Z,52.40
2022-08-31T12:27:55.215Z,52.80
2022-08-31T12:30:25.905Z,53.40
2022-08-31T12:33:01.179Z,53.50
2022-08-31T12:35:31.380Z,52.20
2022-08-31T12:38:07.509Z,54.20
2022-08-31T12:40:44.332Z,55.30
2022-08-31T12:43:19.632Z,56.00
2022-08-31T12:46:25.601Z,57.50
2022-08-31T12:49:16.017Z,57.60
2022-08-31T12:51:50.778Z,58.00
2022-08-31T12:54:23.626Z,56.90
2022-08-31T12:56:56.267Z,56.80
2022-08-31T13:00:01.194Z,54.70
2022-08-31T13:02:34.828Z,52.60
2022-08-31T13:07:33.437Z,51.70
2022-08-31T13:10:13.236Z,51.30
2022-08-31T13:12:48.828Z,52.50
2022-08-31T13:15:30.825Z,53.50
2022-08-31T13:18:01.546Z,53.50
2022-08-31T13:20:40.313Z,54.50
2022-08-31T13:23:10.337Z,55.80
2022-08-31T13:25:38.215Z,56.20
2022-08-31T13:28:05.043Z,53.70
2022-08-31T13:30:36.615Z,51.50
2022-08-31T13:33:23.178Z,51.80
2022-08-31T13:35:55.155Z,51.00
2022-08-31T13:38:29.932Z,50.10
2022-08-31T13:45:59.247Z,50.90
2022-08-31T13:48:40.710Z,51.80
2022-08-31T13:51:18.780Z,53.00
2022-08-31T13:54:07.839Z,53.50
2022-08-31T13:56:57.599Z,54.30
2022-08-31T13:59:35.280Z,55.30
2022-08-31T14:02:19.494Z,55.70
2022-08-31T14:05:03.560Z,53.30
2022-08-31T14:07:39.664Z,51.70
2022-08-31T14:10:24.023Z,51.50
2022-08-31T14:12:56.024Z,51.50
2022-08-31T14:15:48.928Z,50.80
2022-08-31T14:18:27.554Z,52.70
2022-08-31T14:21:23.648Z,50.70
2022-08-31T14:24:07.223Z,52.70
2022-08-31T14:26:36.934Z,51.70
2022-08-31T14:29:10.724Z,51.10
2022-08-31T14:31:52.159Z,52.40
2022-08-31T14:34:27.309Z,53.50
2022-08-31T14:36:58.186Z,53.80
2022-08-31T14:39:30.929Z,53.80
2022-08-31T14:42:01.016Z,54.70
2022-08-31T14:44:35.948Z,56.40
2022-08-31T14:49:36.373Z,57.20
2022-08-31T14:52:06.509Z,59.40
2022-08-31T14:54:35.268Z,57.70
2022-08-31T14:57:05.003Z,58.60
2022-08-31T14:59:34.930Z,57.70
2022-08-31T15:09:43.101Z,58.40
2022-08-31T15:12:14.921Z,59.00
2022-08-31T15:14:44.817Z,58.20
2022-08-31T15:17:19.325Z,57.30
2022-08-31T15:19:48.075Z,57.50
2022-08-31T15:27:15.496Z,58.50
2022-08-31T15:29:49.661Z,59.10
2022-08-31T15:32:17.552Z,59.20
2022-08-31T15:34:58.274Z,59.30
2022-08-31T15:37:31.587Z,57.60
2022-08-31T15:40:01.970Z,58.30
2022-08-31T15:47:50.918Z,57.20
2022-08-31T15:50:20.659Z,58.70
2022-08-31T15:52:51.188Z,60.40
2022-08-31T15:55:26.623Z,59.90
2022-08-31T15:57:55.472Z,59.60
2022-08-31T16:00:23.793Z,61.00
2022-08-31T16:02:54.205Z,62.50
2022-08-31T16:05:22.286Z,62.80
2022-08-31T16:12:47.919Z,62.30
2022-08-31T16:15:15.610Z,63.40
2022-08-31T16:17:43.228Z,61.80
2022-08-31T16:20:12.269Z,62.90
2022-08-31T16:22:40.233Z,63.10
2022-08-31T16:25:11.603Z,63.60
2022-08-31T16:27:39.837Z,64.60
2022-08-31T16:30:09.134Z,64.30
2022-08-31T16:37:33.823Z,64.50
2022-08-31T16:40:01.160Z,64.90
2022-08-31T16:42:28.405Z,64.60
2022-08-31T16:44:59.880Z,65.10
2022-08-31T16:47:29.379Z,64.90
2022-08-31T16:52:28.338Z,66.40
2022-08-31T16:54:57.482Z,65.90
2022-08-31T16:57:27.658Z,65.90
2022-08-31T16:59:56.537Z,68.30
2022-08-31T17:02:24.462Z,68.50
2022-08-31T17:04:53.642Z,68.60
2022-08-31T17:07:23.235Z,68.10
2022-08-31T17:09:50.167Z,68.60
2022-08-31T17:12:21.765Z,69.00
2022-08-31T17:14:52.747Z,69.10
2022-08-31T17:17:25.209Z,69.60
2022-08-31T17:19:54.156Z,69.90
2022-08-31T17:22:30.011Z,70.40
2022-08-31T17:25:04.876Z,71.30
2022-08-31T17:27:33.812Z,70.70
2022-08-31T17:32:28.945Z,72.30
2022-08-31T17:34:56.444Z,72.40
2022-08-31T17:37:30.797Z,71.90
2022-08-31T17:39:58.757Z,72.20
2022-08-31T17:42:28.117Z,72.60
2022-08-31T17:44:56.914Z,73.70
2022-08-31T17:47:25.939Z,73.20
2022-08-31T17:52:21.902Z,74.10
2022-08-31T17:54:51.176Z,74.30
2022-08-31T17:59:49.177Z,74.70
2022-08-31T18:02:32.409Z,74.80
2022-08-31T18:04:59.778Z,75.20
2022-08-31T18:07:27.139Z,75.40
2022-08-31T18:09:54.021Z,76.00
2022-08-31T18:12:25.842Z,78.30
2022-08-31T18:14:53.971Z,78.80
2022-08-31T18:17:22.461Z,78.40
2022-08-31T18:19:49.666Z,79.40
2022-08-31T18:27:15.426Z,80.00
2022-08-31T18:29:44.279Z,79.80
2022-08-31T18:32:12.348Z,79.60
2022-08-31T18:34:44.908Z,80.20
2022-08-31T18:37:13.040Z,80.00
2022-08-31T18:40:00.043Z,80.40
2022-08-31T18:45:18.983Z,80.20
2022-08-31T18:50:45.029Z,81.10
2022-08-31T18:53:15.512Z,81.70
2022-08-31T18:58:22.146Z,81.30
2022-08-31T19:00:57.979Z,81.50
2022-08-31T19:03:27.312Z,81.00
2022-08-31T19:05:54.741Z,81.10
2022-08-31T19:08:21.835Z,82.80
2022-08-31T19:10:49.161Z,82.40
2022-08-31T19:13:16.608Z,81.90
2022-08-31T19:15:44.116Z,82.90
2022-08-31T19:18:10.990Z,81.60
2022-08-31T19:20:39.177Z,82.30
2022-08-31T19:23:06.234Z,82.40
2022-08-31T19:25:33.517Z,82.70
2022-08-31T19:28:07.116Z,82.40
2022-08-31T19:30:35.220Z,82.40
2022-08-31T19:33:07.578Z,82.60
2022-08-31T19:35:36.136Z,83.70
2022-08-31T19:38:03.363Z,83.50
2022-08-31T19:40:38.122Z,83.40
2022-08-31T19:45:54.263Z,84.40
2022-08-31T19:48:23.793Z,84.40
2022-08-31T19:50:52.073Z,85.20
2022-08-31T19:55:51.098Z,85.30
2022-08-31T19:58:22.142Z,85.50
2022-08-31T20:00:49.971Z,86.50
2022-08-31T20:03:19.376Z,86.70
2022-08-31T20:05:47.150Z,87.00
2022-08-31T20:08:14.173Z,87.20
2022-08-31T20:10:46.255Z,87.90
2022-08-31T20:13:14.540Z,88.20
2022-08-31T20:15:43.795Z,89.00
2022-08-31T20:18:12.053Z,89.30
2022-08-31T20:20:45.798Z,89.40
2022-08-31T20:23:16.731Z,89.60
2022-08-31T20:25:46.116Z,89.90
2022-08-31T20:28:13.940Z,90.00
2022-08-31T20:30:43.018Z,89.90
2022-08-31T20:33:11.586Z,90.00
2022-08-31T20:35:47.618Z,90.60
2022-08-31T20:38:18.098Z,90.40
2022-08-31T20:40:47.610Z,90.60
2022-08-31T20:43:15.609Z,90.60
2022-08-31T20:45:42.597Z,90.60
2022-08-31T20:48:28.685Z,90.90
2022-08-31T20:50:56.274Z,91.20
2022-08-31T20:53:42.586Z,91.10
2022-08-31T20:56:17.397Z,91.40
2022-08-31T20:58:46.110Z,91.40
2022-08-31T21:01:14.187Z,91.40
2022-08-31T21:03:41.941Z,92.10
2022-08-31T21:06:12.250Z,92.30
2022-08-31T21:08:42.629Z,92.40
2022-08-31T21:11:12.235Z,92.50
2022-08-31T21:13:39.546Z,92.60
2022-08-31T21:16:07.125Z,92.90
2022-08-31T21:21:12.711Z,93.60
2022-08-31T21:28:40.475Z,93.70
2022-08-31T21:31:15.499Z,94.40
2022-08-31T21:33:46.602Z,94.20
2022-08-31T21:36:15.533Z,94.10
2022-08-31T21:38:43.692Z,94.00
2022-08-31T21:41:12.619Z,94.30
2022-08-31T21:43:40.350Z,93.20
2022-08-31T21:46:13.864Z,94.30
2022-08-31T21:48:42.690Z,93.80
2022-08-31T21:51:17.299Z,94.10
2022-08-31T21:53:46.099Z,94.00
2022-08-31T21:58:40.424Z,94.80
2022-08-31T22:01:10.414Z,94.70
2022-08-31T22:06:09.858Z,94.90
2022-08-31T22:08:38.441Z,94.80
2022-08-31T22:11:18.319Z,95.40
2022-08-31T22:13:47.982Z,95.70
2022-08-31T22:16:19.499Z,95.90
2022-08-31T22:19:02.522Z,96.30
2022-08-31T22:21:34.177Z,96.30
2022-08-31T22:24:06.534Z,96.40
2022-08-31T22:26:40.276Z,96.90
2022-08-31T22:29:09.871Z,96.90
2022-08-31T22:31:38.551Z,96.80
2022-08-31T22:34:07.407Z,97.00
2022-08-31T22:36:37.365Z,97.00
2022-08-31T22:39:10.488Z,97.00
2022-08-31T22:41:40.138Z,97.40
2022-08-31T22:44:10.631Z,97.70
2022-08-31T22:46:38.921Z,98.40
2022-08-31T22:49:07.878Z,97.90
2022-08-31T22:51:37.101Z,98.10
2022-08-31T22:54:05.002Z,98.50
2022-08-31T22:56:34.360Z,98.90
2022-08-31T22:59:04.478Z,99.10
2022-08-31T23:01:47.936Z,99.00
2022-08-31T23:04:20.264Z,99.20
2022-08-31T23:06:49.589Z,99.50
2022-08-31T23:09:21.057Z,99.40
2022-08-31T23:11:51.680Z,99.70
2022-08-31T23:14:21.092Z,99.60
2022-08-31T23:16:55.272Z,99.90
2022-08-31T23:19:26.348Z,99.90
2022-08-31T23:21:56.688Z,99.90
2022-08-31T23:24:44.905Z,99.90
2022-08-31T23:27:13.970Z,99.90
2022-08-31T23:29:47.917Z,99.90
2022-08-31T23:32:17.541Z,99.90
2022-08-31T23:34:46.541Z,99.90
2022-08-31T23:37:14.253Z,99.90
2022-08-31T23:39:46.246Z,99.90
2022-08-31T23:42:16.600Z,99.90
2022-08-31T23:44:46.877Z,99.90
2022-08-31T23:47:22.974Z,99.90
2022-08-31T23:49:51.470Z,99.90
2022-08-31T23:52:21.396Z,99.90
2022-08-31T23:54:50.629Z,99.90
2022-08-31T23:57:32.087Z,99.90
